createdAt,value
2023-03-17T08:03:27.484Z,101667.38
2023-03-17T08:05:58.252Z,101638.16
2023-03-17T08:08:29.118Z,101609.91
2023-03-17T08:11:05.156Z,101677.84
2023-03-17T08:13:35.591Z,101650.66
2023-03-17T08:16:05.879Z,101646.63
2023-03-17T08:18:38.719Z,101637.69
2023-03-17T08:21:09.246Z,101644.50
2023-03-17T08:23:39.352Z,101624.81
2023-03-17T08:26:09.437Z,101636.00
2023-03-17T08:28:39.949Z,101644.00
2023-03-17T08:31:13.105Z,101634.88
2023-03-17T08:33:48.735Z,101605.06
2023-03-17T08:36:19.247Z,101632.25
2023-03-17T08:38:50.553Z,101617.97
2023-03-17T08:41:28.302Z,101617.63
2023-03-17T08:43:58.825Z,101602.91
2023-03-17T08:46:30.830Z,101613.16
2023-03-17T08:49:04.437Z,101618.75
2023-03-17T08:51:37.570Z,101557.09
2023-03-17T08:54:08.497Z,101576.53
2023-03-17T08:56:38.690Z,101619.22
2023-03-17T08:59:08.995Z,101597.34
2023-03-17T09:01:40.511Z,101576.03
2023-03-17T09:04:13.302Z,101635.75
2023-03-17T09:07:01.322Z,101589.44
2023-03-17T09:09:34.724Z,101609.47
2023-03-17T09:12:06.559Z,101620.00
2023-03-17T09:14:43.467Z,101606.84
2023-03-17T09:17:15.627Z,101580.94
2023-03-17T09:19:48.376Z,101597.19
2023-03-17T09:22:20.619Z,101597.53
2023-03-17T09:24:50.882Z,101589.97
2023-03-17T09:27:21.100Z,101594.28
2023-03-17T09:29:51.403Z,101609.97
2023-03-17T09:32:21.610Z,101607.91
2023-03-17T09:34:54.230Z,101608.63
2023-03-17T09:37:24.386Z,101604.34
2023-03-17T09:39:54.621Z,101613.78
2023-03-17T09:42:39.368Z,101584.38
2023-03-17T09:45:25.029Z,101596.47
2023-03-17T09:48:24.531Z,101604.91
2023-03-17T09:51:00.582Z,101628.53
2023-03-17T09:53:35.269Z,101626.56
2023-03-17T09:56:11.448Z,101659.63
2023-03-17T09:58:43.668Z,101598.50
2023-03-17T10:01:14.044Z,101627.41
2023-03-17T10:03:45.299Z,101582.22
2023-03-17T10:06:37.858Z,101605.13
2023-03-17T10:09:26.728Z,101642.56
2023-03-17T10:12:05.639Z,101616.31
2023-03-17T10:14:51.132Z,101617.16
2023-03-17T10:17:23.378Z,101590.34
2023-03-17T10:20:01.156Z,101622.41
2023-03-17T10:22:41.316Z,101628.75
2023-03-17T10:25:17.812Z,101607.84
2023-03-17T10:27:54.116Z,101574.69
2023-03-17T10:30:26.142Z,101624.94
2023-03-17T10:32:59.593Z,101565.41
2023-03-17T10:35:30.130Z,101597.44
2023-03-17T10:38:14.079Z,101594.84
2023-03-17T10:40:47.492Z,101574.69
2023-03-17T10:43:21.983Z,101623.13
2023-03-17T10:46:02.665Z,101559.69
2023-03-17T10:48:34.590Z,101583.53
2023-03-17T10:51:10.458Z,101578.13
2023-03-17T10:53:46.081Z,101584.38
2023-03-17T10:56:26.090Z,101571.19
2023-03-17T10:58:59.128Z,101542.44
2023-03-17T11:01:33.249Z,101570.47
2023-03-17T11:04:04.116Z,101590.16
2023-03-17T11:06:42.171Z,101572.00
2023-03-17T11:09:21.790Z,101579.47
2023-03-17T11:11:53.303Z,101576.66
2023-03-17T11:14:23.802Z,101570.41
2023-03-17T11:16:58.125Z,101598.03
2023-03-17T11:19:39.635Z,101593.19
2023-03-17T11:22:16.223Z,101586.69
2023-03-17T11:25:02.796Z,101584.00
2023-03-17T11:27:35.959Z,101567.34
2023-03-17T11:30:25.646Z,101571.81
2023-03-17T11:33:00.957Z,101577.88
2023-03-17T11:35:38.577Z,101581.38
2023-03-17T11:38:22.108Z,101554.44
2023-03-17T11:41:31.629Z,101562.25
2023-03-17T11:44:23.820Z,101560.63
2023-03-17T11:46:59.183Z,101557.63
2023-03-17T11:49:36.037Z,101548.75
2023-03-17T11:52:14.927Z,101538.97
2023-03-17T11:54:53.488Z,101566.25
2023-03-17T11:57:33.104Z,101552.19
2023-03-17T12:00:08.161Z,101531.69
2023-03-17T12:02:45.852Z,101527.44
2023-03-17T12:05:19.402Z,101545.63
2023-03-17T12:07:55.171Z,101551.72
2023-03-17T12:10:28.924Z,101520.88
2023-03-17T12:13:05.413Z,101540.78
2023-03-17T12:15:40.974Z,101553.41
2023-03-17T12:18:18.531Z,101561.91
2023-03-17T12:20:54.587Z,101532.00
2023-03-17T12:23:32.301Z,101526.81
2023-03-17T12:26:07.692Z,101534.66
2023-03-17T12:28:47.280Z,101527.59
2023-03-17T12:31:23.020Z,101530.00
2023-03-17T12:34:02.496Z,101519.78
2023-03-17T12:36:41.718Z,101494.63
2023-03-17T12:39:15.216Z,101506.09
2023-03-17T12:42:14.757Z,101470.44
2023-03-17T12:45:03.830Z,101522.19
2023-03-17T12:47:50.954Z,101492.25
2023-03-17T12:50:50.999Z,101517.66
2023-03-17T12:53:40.742Z,101530.56
2023-03-17T12:56:17.257Z,101506.00
2023-03-17T12:58:49.535Z,101513.41
2023-03-17T13:01:30.149Z,101555.09
2023-03-17T13:04:05.801Z,101512.63
2023-03-17T13:06:42.843Z,101526.06
2023-03-17T13:09:45.496Z,101517.03
2023-03-17T13:12:45.527Z,101522.22
2023-03-17T13:15:26.993Z,101514.34
2023-03-17T13:18:27.412Z,101486.19
2023-03-17T13:21:15.079Z,101496.59
2023-03-17T13:23:47.747Z,101497.09
2023-03-17T13:26:21.131Z,101512.53
2023-03-17T13:28:53.003Z,101530.16
2023-03-17T13:31:36.941Z,101538.16
2023-03-17T13:34:16.690Z,101565.66
2023-03-17T13:36:58.266Z,101546.81
2023-03-17T13:40:02.223Z,101493.16
2023-03-17T13:42:44.681Z,101548.41
2023-03-17T13:45:28.123Z,101522.28
2023-03-17T13:48:44.659Z,101525.00
2023-03-17T13:51:23.417Z,101530.50
2023-03-17T13:53:57.190Z,101514.38
2023-03-17T13:56:30.660Z,101521.34
2023-03-17T13:59:15.528Z,101539.56
2023-03-17T14:01:50.938Z,101509.25
2023-03-17T14:04:25.083Z,101549.75
2023-03-17T14:07:02.264Z,101536.88
2023-03-17T14:09:39.822Z,101523.28
2023-03-17T14:12:16.550Z,101537.38
2023-03-17T14:14:53.947Z,101554.88
2023-03-17T14:17:28.159Z,101539.06
2023-03-17T14:20:11.158Z,101532.56
2023-03-17T14:22:48.515Z,101563.34
2023-03-17T14:25:20.426Z,101551.41
2023-03-17T14:27:54.010Z,101533.63
2023-03-17T14:30:26.736Z,101549.97
2023-03-17T14:33:03.961Z,101522.84
2023-03-17T14:35:35.541Z,101543.81
2023-03-17T14:38:20.828Z,101542.34
2023-03-17T14:40:51.466Z,101538.63
2023-03-17T14:43:21.510Z,101535.84
2023-03-17T14:45:54.290Z,101530.09
2023-03-17T14:48:30.197Z,101517.88
2023-03-17T14:51:06.009Z,101532.91
2023-03-17T14:53:43.410Z,101526.81
2023-03-17T14:56:13.743Z,101526.81
2023-03-17T14:58:46.361Z,101518.22
2023-03-17T15:01:20.328Z,101511.09
2023-03-17T15:03:59.292Z,101537.19
2023-03-17T15:06:35.161Z,101555.00
2023-03-17T15:09:21.346Z,101529.00
2023-03-17T15:11:52.200Z,101538.44
2023-03-17T15:14:34.670Z,101555.94
2023-03-17T15:17:06.922Z,101569.25
2023-03-17T15:19:42.393Z,101532.75
2023-03-17T15:22:28.161Z,101536.88
2023-03-17T15:25:21.266Z,101533.19
2023-03-17T15:27:51.805Z,101550.34
2023-03-17T15:30:22.532Z,101556.94
2023-03-17T15:33:00.814Z,101540.44
2023-03-17T15:35:31.605Z,101580.09
2023-03-17T15:38:01.728Z,101567.94
2023-03-17T15:40:34.648Z,101570.84
2023-03-17T15:43:04.836Z,101585.97
2023-03-17T15:45:34.906Z,101560.28
2023-03-17T15:48:04.996Z,101579.94
2023-03-17T15:50:35.678Z,101556.94
2023-03-17T15:53:06.111Z,101538.88
2023-03-17T15:55:38.821Z,101576.34
2023-03-17T15:58:08.900Z,101574.72
2023-03-17T16:00:39.355Z,101563.34
2023-03-17T16:03:18.644Z,101578.41
2023-03-17T16:05:48.749Z,101553.41
2023-03-17T16:08:19.711Z,101560.31
2023-03-17T16:10:52.441Z,101570.59
2023-03-17T16:13:22.884Z,101561.13
2023-03-17T16:15:58.296Z,101567.31
2023-03-17T16:18:35.319Z,101575.69
2023-03-17T16:21:06.337Z,101561.19
2023-03-17T16:23:38.776Z,101574.53
2023-03-17T16:26:16.197Z,101576.66
2023-03-17T16:28:47.839Z,101579.84
2023-03-17T16:31:30.324Z,101581.25
2023-03-17T16:34:02.601Z,101589.84
2023-03-17T16:36:32.714Z,101588.00
2023-03-17T16:39:02.829Z,101581.56
2023-03-17T16:41:38.242Z,101591.31
2023-03-17T16:44:09.951Z,101592.06
2023-03-17T16:46:40.270Z,101585.50
2023-03-17T16:49:10.312Z,101586.84
2023-03-17T16:51:40.353Z,101588.09
2023-03-17T16:54:10.822Z,101595.63
2023-03-17T16:56:45.107Z,101599.31
2023-03-17T16:59:21.466Z,101603.09
2023-03-17T17:01:52.585Z,101600.50
2023-03-17T17:04:24.423Z,101599.03
2023-03-17T17:06:55.174Z,101604.03
2023-03-17T17:09:25.516Z,101598.59
2023-03-17T17:11:58.684Z,101598.84
2023-03-17T17:14:28.731Z,101607.44
2023-03-17T17:16:58.840Z,101610.31
2023-03-17T17:19:28.945Z,101609.59
2023-03-17T17:21:59.074Z,101612.75
2023-03-17T17:24:29.715Z,101626.47
2023-03-17T17:27:02.511Z,101615.06
2023-03-17T17:29:32.649Z,101614.88
2023-03-17T17:32:02.763Z,101613.66
2023-03-17T17:34:32.850Z,101624.53
2023-03-17T17:37:02.918Z,101620.31
2023-03-17T17:39:33.089Z,101626.56
2023-03-17T17:42:05.878Z,101610.16
2023-03-17T17:44:37.149Z,101625.66
2023-03-17T17:47:07.999Z,101620.91
2023-03-17T17:49:38.230Z,101623.03
2023-03-17T17:52:08.547Z,101625.84
2023-03-17T17:54:38.879Z,101621.03
2023-03-17T17:57:11.574Z,101617.69
2023-03-17T17:59:41.763Z,101625.50
2023-03-17T18:02:13.333Z,101626.56
2023-03-17T18:04:43.464Z,101635.56
2023-03-17T18:07:13.716Z,101635.75
2023-03-17T18:09:43.748Z,101633.91
2023-03-17T18:12:16.581Z,101632.34
2023-03-17T18:14:46.635Z,101635.22
2023-03-17T18:17:21.817Z,101635.81
2023-03-17T18:19:53.087Z,101641.78
2023-03-17T18:22:23.615Z,101629.16
2023-03-17T18:24:53.829Z,101637.25
2023-03-17T18:27:26.654Z,101631.63
2023-03-17T18:29:58.236Z,101639.22
2023-03-17T18:32:29.036Z,101634.78
2023-03-17T18:35:05.333Z,101644.56
2023-03-17T18:37:35.856Z,101633.00
2023-03-17T18:40:15.101Z,101644.13
2023-03-17T18:42:50.388Z,101632.41
2023-03-17T18:45:20.535Z,101649.16
2023-03-17T18:47:50.620Z,101643.78
2023-03-17T18:50:22.176Z,101647.34
2023-03-17T18:52:53.005Z,101655.66
2023-03-17T18:55:23.312Z,101646.88
